TimeMDT,TemperatureF,Dew PointF,Humidity,Sea Level PressureIn,VisibilityMPH,Wind Direction,Wind SpeedMPH,Gust SpeedMPH,PrecipitationIn,Events,Conditions,WindDirDegrees,DateUTC
12:55 AM,37.0,27.0,67,29.62,10.0,North,6.9,-,N/A,,Mostly Cloudy,350,2013-04-08 06:55:00
1:41 AM,35.6,28.4,75,29.66,7.0,NW,8.1,-,0.00,Snow,Light Snow,310,2013-04-08 07:41:00
1:51 AM,35.6,28.4,75,29.66,10.0,WNW,9.2,-,0.00,Snow,Light Snow,300,2013-04-08 07:51:00
1:55 AM,35.1,28.0,76,29.62,9.0,WNW,10.4,-,0.00,Snow,Light Snow,300,2013-04-08 07:55:00
2:55 AM,34.0,28.0,79,29.65,10.0,NW,5.8,-,0.00,,Overcast,310,2013-04-08 08:55:00
3:55 AM,34.0,27.0,75,29.62,10.0,WNW,6.9,-,N/A,,Overcast,300,2013-04-08 09:55:00
4:55 AM,34.0,28.0,79,29.60,10.0,NNW,4.6,-,N/A,,Overcast,340,2013-04-08 10:55:00
5:55 AM,35.1,25.0,67,29.60,10.0,NNW,4.6,-,N/A,,Overcast,340,2013-04-08 11:55:00
6:55 AM,35.1,23.0,61,29.61,10.0,NNW,4.6,-,N/A,,Overcast,330,2013-04-08 12:55:00
7:55 AM,35.1,23.0,61,29.65,10.0,North,5.8,-,N/A,,Overcast,360,2013-04-08 13:55:00
8:55 AM,37.9,21.9,53,29.66,10.0,North,9.2,-,N/A,,Overcast,360,2013-04-08 14:55:00
9:55 AM,39.0,21.9,50,29.68,10.0,NE,15.0,20.7,N/A,,Overcast,40,2013-04-08 15:55:00
10:55 AM,39.9,21.9,49,29.68,10.0,North,15.0,24.2,N/A,,Mostly Cloudy,10,2013-04-08 16:55:00
11:55 AM,42.1,21.0,43,29.69,10.0,North,20.7,31.1,N/A,,Overcast,10,2013-04-08 17:55:00
12:55 PM,43.0,21.0,42,29.70,-9999.0,NNE,19.6,26.5,N/A,,Mostly Cloudy,30,2013-04-08 18:55:00
1:55 PM,43.0,21.9,43,29.70,10.0,NNE,20.7,29.9,N/A,,Mostly Cloudy,30,2013-04-08 19:55:00
2:55 PM,44.1,19.9,38,29.72,10.0,NE,20.7,28.8,N/A,,Mostly Cloudy,40,2013-04-08 20:55:00
3:55 PM,44.1,19.0,37,29.74,10.0,NNE,20.7,29.9,N/A,,Mostly Cloudy,30,2013-04-08 21:55:00
4:55 PM,42.1,17.1,37,29.77,10.0,NE,18.4,29.9,N/A,,Mostly Cloudy,40,2013-04-08 22:55:00
5:55 PM,41.0,16.0,36,29.78,10.0,NNE,17.3,27.6,N/A,,Overcast,20,2013-04-08 23:55:00
6:55 PM,39.0,16.0,39,29.83,10.0,NE,17.3,27.6,N/A,,Mostly Cloudy,40,2013-04-09 00:55:00
7:55 PM,37.9,15.1,39,29.86,10.0,NNE,12.7,24.2,N/A,,Overcast,30,2013-04-09 01:55:00
8:55 PM,36.0,16.0,44,29.91,10.0,NNE,12.7,20.7,N/A,,Overcast,30,2013-04-09 02:55:00
9:55 PM,34.0,15.1,46,29.94,10.0,North,10.4,-,N/A,,Overcast,10,2013-04-09 03:55:00
10:55 PM,32.0,15.1,50,29.97,10.0,North,11.5,-,N/A,,Partly Cloudy,10,2013-04-09 04:55:00